createdAt,value
2022-08-04T00:00:40.417Z,101007.06
2022-08-04T00:03:18.185Z,101001.19
2022-08-04T00:06:04.667Z,101004.38
2022-08-04T00:08:46.251Z,101011.53
2022-08-04T00:11:19.840Z,101005.09
2022-08-04T00:14:03.066Z,101003.69
2022-08-04T00:16:37.769Z,101000.13
2022-08-04T00:19:22.147Z,100998.94
2022-08-04T00:21:56.694Z,101003.09
2022-08-04T00:24:23.861Z,100997.03
2022-08-04T00:26:54.034Z,101001.41
2022-08-04T00:29:21.945Z,100994.06
2022-08-04T00:31:56.497Z,100994.56
2022-08-04T00:34:28.552Z,101000.59
2022-08-04T00:36:56.538Z,100995.72
2022-08-04T00:39:23.413Z,100995.25
2022-08-04T00:41:57.057Z,100996.81
2022-08-04T00:44:54.241Z,100999.66
2022-08-04T00:47:40.405Z,101002.16
2022-08-04T00:50:28.935Z,101002.88
2022-08-04T00:53:14.451Z,101003.09
2022-08-04T00:55:49.767Z,100996.56
2022-08-04T00:58:50.420Z,100997.63
2022-08-04T01:01:35.390Z,101004.78
2022-08-04T01:04:22.329Z,101002.59
2022-08-04T01:07:15.439Z,101010.47
2022-08-04T01:09:57.106Z,101000.38
2022-08-04T01:12:41.711Z,101001.69
2022-08-04T01:15:23.009Z,100999.56
2022-08-04T01:18:01.636Z,100997.19
2022-08-04T01:20:35.037Z,100999.19
2022-08-04T01:23:32.389Z,101001.78
2022-08-04T01:26:43.855Z,100998.13
2022-08-04T01:29:24.591Z,100999.16
2022-08-04T01:32:04.765Z,100999.41
2022-08-04T01:34:36.652Z,101002.97
2022-08-04T01:37:18.494Z,100998.22
2022-08-04T01:39:56.584Z,100997.41
2022-08-04T01:42:31.612Z,100993.94
2022-08-04T01:45:02.515Z,100997.84
2022-08-04T01:47:30.794Z,101003.44
2022-08-04T01:50:06.053Z,101003.44
2022-08-04T01:52:34.960Z,100994.16
2022-08-04T01:55:05.150Z,100998.91
2022-08-04T01:57:38.637Z,101000.19
2022-08-04T02:00:06.902Z,100991.50
2022-08-04T02:02:34.252Z,100989.00
2022-08-04T02:05:00.851Z,100989.00
2022-08-04T02:07:40.440Z,100992.66
2022-08-04T02:10:49.379Z,100991.50
2022-08-04T02:13:28.316Z,100991.84
2022-08-04T02:16:28.144Z,100988.47
2022-08-04T02:19:19.939Z,100987.88
2022-08-04T02:21:51.563Z,100987.03
2022-08-04T02:24:24.447Z,100982.41
2022-08-04T02:26:53.515Z,100985.34
2022-08-04T02:29:29.223Z,100980.72
2022-08-04T02:32:04.370Z,100979.88
2022-08-04T02:34:47.909Z,100980.44
2022-08-04T02:37:17.293Z,100979.63
2022-08-04T02:39:48.451Z,100975.03
2022-08-04T02:42:16.678Z,100973.34
2022-08-04T02:44:43.402Z,100980.22
2022-08-04T02:47:11.589Z,100977.25
2022-08-04T02:49:41.236Z,100966.72
2022-08-04T02:52:12.553Z,100970.72
2022-08-04T02:54:40.999Z,100977.72
2022-08-04T02:57:12.430Z,100975.47
2022-08-04T02:59:51.600Z,100977.69
2022-08-04T03:02:28.756Z,100973.53
2022-08-04T03:05:02.510Z,100970.91
2022-08-04T03:07:51.582Z,100973.47
2022-08-04T03:10:55.264Z,100973.69
2022-08-04T03:13:59.722Z,100981.59
2022-08-04T03:16:51.797Z,100981.44
2022-08-04T03:19:58.482Z,100982.28
2022-08-04T03:23:12.121Z,100985.47
2022-08-04T03:26:17.272Z,100968.63
2022-08-04T03:29:08.316Z,100977.41
2022-08-04T03:31:53.178Z,100975.53
2022-08-04T03:35:02.653Z,100970.81
2022-08-04T03:37:58.317Z,100971.91
2022-08-04T03:40:30.514Z,100971.91
2022-08-04T03:43:57.115Z,100977.28
2022-08-04T03:46:25.735Z,100977.28
2022-08-04T03:49:32.879Z,100973.25
2022-08-04T03:52:55.174Z,100966.22
2022-08-04T03:55:40.047Z,100970.25
2022-08-04T03:58:52.678Z,100967.06
2022-08-04T04:02:02.737Z,100966.84
2022-08-04T04:05:03.938Z,100966.41
2022-08-04T04:07:59.653Z,100965.22
2022-08-04T04:10:51.670Z,100969.25
2022-08-04T04:13:49.418Z,100970.88
2022-08-04T04:16:58.064Z,100970.19
2022-08-04T04:19:52.354Z,100977.91
2022-08-04T04:22:53.762Z,100975.19
2022-08-04T04:25:41.522Z,100973.00
2022-08-04T04:28:43.494Z,100978.56
2022-08-04T04:31:49.359Z,100971.69
2022-08-04T04:34:35.299Z,100980.38
2022-08-04T04:37:20.749Z,100980.63
2022-08-04T04:40:03.375Z,100985.78
2022-08-04T04:42:49.608Z,100984.56
2022-08-04T04:45:34.463Z,100981.88
2022-08-04T04:48:17.816Z,100986.03
2022-08-04T04:50:47.096Z,100987.13
2022-08-04T04:53:24.001Z,100977.81
2022-08-04T04:56:05.606Z,100983.69
2022-08-04T04:58:34.070Z,100985.50
2022-08-04T05:01:09.374Z,100978.34
2022-08-04T05:03:52.061Z,100986.91
2022-08-04T05:06:54.352Z,100991.56
2022-08-04T05:09:31.177Z,100984.44
2022-08-04T05:14:24.848Z,100978.41
2022-08-04T05:14:58.337Z,100983.69
2022-08-04T05:17:33.740Z,100999.53
2022-08-04T05:20:08.136Z,100997.59
2022-08-04T05:22:56.812Z,100988.56
2022-08-04T05:25:34.715Z,100988.31
2022-08-04T05:28:12.144Z,100987.25
2022-08-04T05:30:48.582Z,100989.28
2022-08-04T05:33:31.236Z,100990.75
2022-08-04T05:36:18.503Z,100987.09
2022-08-04T05:38:59.987Z,100984.25
2022-08-04T05:41:44.918Z,100990.28
2022-08-04T05:44:15.084Z,100989.50
2022-08-04T05:46:43.586Z,100986.34
2022-08-04T05:49:10.766Z,100986.19
2022-08-04T05:51:47.290Z,100984.25
2022-08-04T05:54:15.167Z,100990.47
2022-08-04T05:56:42.495Z,100992.91
2022-08-04T05:59:12.642Z,100986.22
2022-08-04T06:01:55.485Z,100992.31
2022-08-04T06:04:31.229Z,100989.09
2022-08-04T06:06:57.727Z,100995.00
2022-08-04T06:09:24.343Z,100989.22
2022-08-04T06:12:02.131Z,100994.28
2022-08-04T06:14:39.446Z,100990.94
2022-08-04T06:18:33.367Z,100997.72
2022-08-04T06:19:59.898Z,100993.78
2022-08-04T06:22:34.292Z,100998.78
2022-08-04T06:25:02.814Z,100994.06
2022-08-04T06:27:31.499Z,101006.16
2022-08-04T06:29:59.843Z,100991.00
2022-08-04T06:32:34.687Z,100994.75
2022-08-04T06:35:05.019Z,100992.81
2022-08-04T06:37:42.058Z,100997.44
2022-08-04T06:40:31.702Z,100997.09
2022-08-04T06:43:00.664Z,101003.28
2022-08-04T06:45:27.772Z,100990.94
2022-08-04T06:47:55.411Z,100992.97
2022-08-04T06:51:25.475Z,100990.09
2022-08-04T06:53:09.808Z,100994.59
2022-08-04T06:55:37.233Z,100987.50
2022-08-04T06:58:05.120Z,100985.88
2022-08-04T07:00:32.376Z,100982.88
2022-08-04T07:02:59.603Z,100989.00
2022-08-04T07:05:26.678Z,100982.75
2022-08-04T07:07:56.859Z,100985.13
2022-08-04T07:10:28.450Z,100983.88
2022-08-04T07:12:59.400Z,100980.84
2022-08-04T07:15:26.671Z,100987.41
2022-08-04T07:17:54.099Z,100990.66
2022-08-04T07:20:34.556Z,100983.38
2022-08-04T07:23:03.393Z,100984.25
2022-08-04T07:26:00.705Z,100987.00
2022-08-04T07:28:16.612Z,100983.16
2022-08-04T07:30:44.824Z,100983.34
2022-08-04T07:33:11.666Z,100984.38
2022-08-04T07:36:04.858Z,100989.59
2022-08-04T07:38:27.713Z,100986.66
2022-08-04T07:40:55.414Z,100975.34
2022-08-04T07:43:22.782Z,100979.00
2022-08-04T07:45:49.490Z,100979.91
2022-08-04T07:48:18.659Z,100978.69
2022-08-04T07:50:45.482Z,100978.00
2022-08-04T07:53:55.558Z,100971.50
2022-08-04T07:56:02.162Z,100971.78
2022-08-04T07:58:30.257Z,100978.06
2022-08-04T08:00:57.677Z,100974.19
2022-08-04T08:03:25.166Z,100973.78
2022-08-04T08:06:16.408Z,100963.88
2022-08-04T08:08:39.516Z,100957.56
2022-08-04T08:11:07.177Z,100968.34
2022-08-04T08:13:34.722Z,100961.94
2022-08-04T08:16:01.597Z,100959.25
2022-08-04T08:18:28.031Z,100951.66
2022-08-04T08:20:55.391Z,100956.28
2022-08-04T08:23:22.290Z,100956.94
2022-08-04T08:25:49.321Z,100946.84
2022-08-04T08:28:16.656Z,100948.75
2022-08-04T08:30:43.222Z,100952.66
2022-08-04T08:33:14.884Z,100944.94
2022-08-04T08:35:54.704Z,100951.81
2022-08-04T08:38:33.338Z,100951.56
2022-08-04T08:41:30.630Z,100943.88
2022-08-04T08:44:37.530Z,100942.69
2022-08-04T08:48:05.487Z,100937.06
2022-08-04T08:50:49.568Z,100937.06
2022-08-04T08:53:36.114Z,100938.34
2022-08-04T08:56:16.437Z,100938.97
2022-08-04T08:59:01.741Z,100943.63
2022-08-04T09:02:19.982Z,100930.66
2022-08-04T09:04:59.127Z,100932.59
2022-08-04T09:07:45.110Z,100942.53
2022-08-04T09:10:41.073Z,100940.50
2022-08-04T09:13:19.652Z,100936.84
2022-08-04T09:16:10.369Z,100929.47
2022-08-04T09:18:46.011Z,100940.94
2022-08-04T09:21:33.343Z,100937.53
2022-08-04T09:24:35.066Z,100935.47
2022-08-04T09:27:09.812Z,100933.88
2022-08-04T09:29:45.192Z,100941.72
2022-08-04T09:32:23.538Z,100929.31
2022-08-04T09:35:08.432Z,100922.31
2022-08-04T09:37:45.888Z,100919.63
2022-08-04T09:40:31.831Z,100925.34
2022-08-04T09:43:57.124Z,100927.78
2022-08-04T09:46:27.825Z,100927.19
2022-08-04T09:49:02.567Z,100918.34
2022-08-04T09:51:57.403Z,100923.47
2022-08-04T09:54:44.145Z,100921.59
2022-08-04T09:57:29.826Z,100923.03
2022-08-04T10:00:05.390Z,100907.06
2022-08-04T10:02:42.551Z,100908.59
2022-08-04T10:05:16.250Z,100910.75
2022-08-04T10:07:59.495Z,100913.44
2022-08-04T10:10:56.556Z,100912.97
2022-08-04T10:13:39.257Z,100908.84
2022-08-04T10:16:29.634Z,100908.06
2022-08-04T10:19:17.444Z,100901.97
2022-08-04T10:22:26.927Z,100902.69
2022-08-04T10:25:02.231Z,100900.53
2022-08-04T10:27:44.629Z,100890.41
2022-08-04T10:30:13.820Z,100889.75
2022-08-04T10:33:03.903Z,100885.44
2022-08-04T10:35:38.560Z,100886.53
2022-08-04T10:38:30.831Z,100892.94
2022-08-04T10:41:06.424Z,100885.47
2022-08-04T10:43:35.518Z,100886.38
2022-08-04T10:46:16.194Z,100877.50
2022-08-04T10:49:07.364Z,100882.69
2022-08-04T10:52:05.299Z,100868.63
2022-08-04T10:54:53.583Z,100876.66
2022-08-04T10:57:28.502Z,100870.13
2022-08-04T11:00:09.624Z,100862.72
2022-08-04T11:02:54.275Z,100865.09
2022-08-04T11:05:27.235Z,100857.72
2022-08-04T11:08:00.207Z,100855.94
2022-08-04T11:10:32.994Z,100848.69
2022-08-04T11:13:22.004Z,100853.22
2022-08-04T11:16:00.534Z,100850.25
2022-08-04T11:18:42.715Z,100850.19
2022-08-04T11:21:21.357Z,100841.78
2022-08-04T11:24:26.483Z,100845.59
2022-08-04T11:27:03.827Z,100838.56
2022-08-04T11:29:59.025Z,100836.69
2022-08-04T11:33:01.066Z,100832.44
2022-08-04T11:35:52.489Z,100841.06
2022-08-04T11:38:21.516Z,100836.88
2022-08-04T11:41:03.144Z,100832.69
2022-08-04T11:44:01.662Z,100828.72
2022-08-04T11:46:38.400Z,100834.25
2022-08-04T11:49:11.829Z,100832.19
2022-08-04T11:51:39.600Z,100839.22
2022-08-04T11:54:06.457Z,100836.25
2022-08-04T11:56:35.876Z,100834.81
2022-08-04T11:59:07.582Z,100823.00
2022-08-04T12:02:05.255Z,100835.78
2022-08-04T12:04:50.153Z,100830.66
2022-08-04T12:08:03.293Z,100835.44
2022-08-04T12:10:57.557Z,100832.31
2022-08-04T12:13:34.928Z,100830.22
2022-08-04T12:16:14.882Z,100830.28
2022-08-04T12:18:57.501Z,100813.81
2022-08-04T12:21:39.610Z,100827.31
2022-08-04T12:24:20.004Z,100823.91
2022-08-04T12:26:53.936Z,100815.47
2022-08-04T12:29:22.633Z,100818.41
2022-08-04T12:32:10.289Z,100819.38
2022-08-04T12:34:46.273Z,100811.53
2022-08-04T12:37:34.835Z,100806.03
2022-08-04T12:40:29.209Z,100804.88
2022-08-04T12:43:23.359Z,100804.13
2022-08-04T12:45:52.982Z,100808.38
2022-08-04T12:48:21.553Z,100795.47
2022-08-04T12:50:53.894Z,100801.31
2022-08-04T12:53:31.917Z,100794.97
2022-08-04T12:56:01.785Z,100796.75
2022-08-04T12:58:42.306Z,100791.22
2022-08-04T13:02:08.014Z,100785.88
2022-08-04T13:04:15.319Z,100784.75
2022-08-04T13:06:43.202Z,100779.19
2022-08-04T13:09:18.571Z,100786.84
2022-08-04T13:11:53.246Z,100775.78
2022-08-04T13:14:27.014Z,100776.56
2022-08-04T13:16:58.963Z,100780.97
2022-08-04T13:19:27.062Z,100768.13
2022-08-04T13:22:02.709Z,100761.09
2022-08-04T13:24:33.651Z,100773.84
2022-08-04T13:27:06.765Z,100773.22
2022-08-04T13:29:59.401Z,100772.84
2022-08-04T13:32:29.888Z,100763.72
2022-08-04T13:34:59.837Z,100764.91
2022-08-04T13:37:33.397Z,100765.69
2022-08-04T13:40:03.439Z,100761.13
2022-08-04T13:42:31.160Z,100755.72
2022-08-04T13:45:00.943Z,100762.41
2022-08-04T13:47:34.848Z,100752.31
2022-08-04T13:50:15.332Z,100743.84
2022-08-04T13:52:43.278Z,100757.22
2022-08-04T13:55:24.849Z,100756.56
2022-08-04T13:57:57.607Z,100755.41
2022-08-04T14:00:30.200Z,100743.84
2022-08-04T14:03:03.446Z,100737.03
2022-08-04T14:05:59.559Z,100734.63
2022-08-04T14:08:29.123Z,100728.91
2022-08-04T14:10:58.628Z,100717.19
2022-08-04T14:13:41.761Z,100710.50
2022-08-04T14:16:20.289Z,100715.38
2022-08-04T14:18:47.966Z,100717.81
2022-08-04T14:21:17.384Z,100710.97
2022-08-04T14:24:10.273Z,100705.41
2022-08-04T14:26:37.086Z,100696.38
2022-08-04T14:29:28.713Z,100700.06
2022-08-04T14:32:10.768Z,100711.22
2022-08-04T14:34:41.424Z,100707.56
2022-08-04T14:37:17.297Z,100695.16
2022-08-04T14:40:17.998Z,100699.09
2022-08-04T14:42:55.475Z,100700.53
2022-08-04T14:45:55.535Z,100693.00
2022-08-04T14:48:22.747Z,100687.44
2022-08-04T14:50:50.324Z,100684.50
2022-08-04T14:53:20.654Z,100683.84
2022-08-04T14:55:54.403Z,100686.53
2022-08-04T14:58:33.911Z,100681.19
2022-08-04T15:01:10.789Z,100676.03
2022-08-04T15:03:51.012Z,100679.63
2022-08-04T15:06:26.248Z,100674.72
2022-08-04T15:08:55.417Z,100671.41
2022-08-04T15:11:24.335Z,100671.94
2022-08-04T15:13:56.014Z,100664.78
2022-08-04T15:16:23.690Z,100654.84
2022-08-04T15:18:51.113Z,100658.09
2022-08-04T15:21:22.448Z,100670.75
2022-08-04T15:23:50.743Z,100660.88
2022-08-04T15:26:23.959Z,100660.22
2022-08-04T15:28:56.086Z,100658.25
2022-08-04T15:32:05.881Z,100666.56
2022-08-04T15:34:12.453Z,100657.44
2022-08-04T15:36:56.844Z,100648.00
2022-08-04T15:39:35.999Z,100647.50
2022-08-04T15:42:21.935Z,100650.13
2022-08-04T15:44:51.757Z,100646.56
2022-08-04T15:47:18.604Z,100644.59
2022-08-04T15:49:45.734Z,100641.03
2022-08-04T15:52:18.340Z,100638.38
2022-08-04T15:54:52.409Z,100637.56
2022-08-04T15:58:09.418Z,100635.78
2022-08-04T16:00:52.065Z,100637.41
2022-08-04T16:03:53.094Z,100637.25
2022-08-04T16:06:20.588Z,100635.28
2022-08-04T16:08:52.542Z,100635.28
2022-08-04T16:11:31.087Z,100627.28
2022-08-04T16:13:58.802Z,100627.72
2022-08-04T16:16:45.438Z,100629.00
2022-08-04T16:19:18.767Z,100624.75
2022-08-04T16:21:49.781Z,100622.13
2022-08-04T16:24:22.170Z,100633.22
2022-08-04T16:26:56.469Z,100629.78
2022-08-04T16:29:23.140Z,100625.19
2022-08-04T16:32:04.997Z,100624.25
2022-08-04T16:34:32.380Z,100620.56
2022-08-04T16:37:14.287Z,100617.69
2022-08-04T16:39:50.049Z,100616.03
2022-08-04T16:42:32.859Z,100619.59
2022-08-04T16:45:08.251Z,100620.56
2022-08-04T16:47:49.806Z,100618.94
2022-08-04T16:50:18.276Z,100615.47
2022-08-04T16:52:46.368Z,100616.91
2022-08-04T16:55:15.815Z,100621.78
2022-08-04T16:57:46.317Z,100622.31
2022-08-04T17:00:12.896Z,100616.88
2022-08-04T17:02:39.634Z,100605.06
2022-08-04T17:05:38.507Z,100610.50
2022-08-04T17:08:28.586Z,100617.84
2022-08-04T17:10:53.787Z,100621.88
2022-08-04T17:14:02.348Z,100607.13
2022-08-04T17:16:23.748Z,100599.47
2022-08-04T17:18:52.826Z,100606.16
2022-08-04T17:21:26.141Z,100603.22
2022-08-04T17:24:12.679Z,100604.22
2022-08-04T17:26:42.074Z,100599.25
2022-08-04T17:29:18.229Z,100600.22
2022-08-04T17:31:46.636Z,100605.00
2022-08-04T17:34:16.745Z,100602.19
2022-08-04T17:36:45.876Z,100608.97
2022-08-04T17:39:21.383Z,100604.06
2022-08-04T17:41:49.111Z,100608.25
2022-08-04T17:44:16.406Z,100603.63
2022-08-04T17:46:48.149Z,100603.06
2022-08-04T17:49:18.187Z,100612.41
2022-08-04T17:52:05.104Z,100608.09
2022-08-04T17:54:38.961Z,100609.84
2022-08-04T17:57:21.605Z,100605.53
2022-08-04T17:59:57.514Z,100601.69
2022-08-04T18:02:32.346Z,100607.75
2022-08-04T18:05:10.007Z,100605.53
2022-08-04T18:08:40.082Z,100599.34
2022-08-04T18:10:51.523Z,100594.22
2022-08-04T18:13:27.188Z,100597.94
2022-08-04T18:19:08.096Z,100587.66
2022-08-04T18:21:34.550Z,100590.66
2022-08-04T18:24:14.320Z,100595.06
2022-08-04T18:26:41.895Z,100597.97
2022-08-04T18:29:26.620Z,100594.97
2022-08-04T18:31:58.121Z,100591.09
2022-08-04T18:34:24.899Z,100588.59
2022-08-04T18:36:57.306Z,100599.16
2022-08-04T18:40:09.781Z,100602.25
2022-08-04T18:42:14.747Z,100595.19
2022-08-04T18:44:52.017Z,100602.59
2022-08-04T18:47:23.020Z,100602.50
2022-08-04T18:50:40.194Z,100603.75
2022-08-04T18:52:45.231Z,100610.78
2022-08-04T18:55:12.227Z,100610.41
2022-08-04T18:57:58.879Z,100609.53
2022-08-04T19:00:25.128Z,100613.88
2022-08-04T19:02:52.251Z,100612.81
2022-08-04T19:05:19.494Z,100614.34
2022-08-04T19:08:01.940Z,100614.66
2022-08-04T19:10:29.095Z,100617.56
2022-08-04T19:12:56.098Z,100612.28
2022-08-04T19:15:22.530Z,100620.75
2022-08-04T19:18:01.107Z,100617.28
2022-08-04T19:20:28.568Z,100617.91
2022-08-04T19:24:32.864Z,100619.38
2022-08-04T19:28:34.788Z,100621.41
2022-08-04T19:31:06.875Z,100618.34
2022-08-04T19:33:58.418Z,100621.78
2022-08-04T19:36:21.108Z,100627.00
2022-08-04T19:38:55.388Z,100623.03
2022-08-04T19:41:22.431Z,100623.16
2022-08-04T19:43:51.416Z,100616.22
2022-08-04T19:46:17.894Z,100617.56
2022-08-04T19:48:44.646Z,100615.16
2022-08-04T19:51:27.818Z,100618.91
2022-08-04T19:53:59.211Z,100612.00
2022-08-04T19:56:30.947Z,100618.72
2022-08-04T19:59:07.559Z,100617.16
2022-08-04T20:01:37.077Z,100611.00
2022-08-04T20:04:11.346Z,100619.69
2022-08-04T20:06:37.887Z,100618.53
2022-08-04T20:09:04.363Z,100615.34
2022-08-04T20:11:50.899Z,100619.59
2022-08-04T20:14:17.811Z,100624.16
2022-08-04T20:16:46.344Z,100615.59
2022-08-04T20:19:14.193Z,100615.66
2022-08-04T20:21:55.299Z,100621.53
2022-08-04T20:24:36.800Z,100628.16
2022-08-04T20:27:07.787Z,100629.09
2022-08-04T20:29:40.008Z,100653.22
2022-08-04T20:32:09.712Z,100646.72
2022-08-04T20:34:36.740Z,100648.72
2022-08-04T20:37:03.181Z,100645.78
2022-08-04T20:39:30.818Z,100644.53
2022-08-04T20:41:57.714Z,100647.84
2022-08-04T20:44:24.475Z,100661.78
2022-08-04T20:46:51.170Z,100663.84
2022-08-04T20:49:17.738Z,100653.56
2022-08-04T20:51:44.303Z,100659.38
2022-08-04T20:54:16.506Z,100666.00
2022-08-04T20:56:50.499Z,100663.53
2022-08-04T20:59:18.151Z,100656.56
2022-08-04T21:01:45.344Z,100655.81
2022-08-04T21:04:34.087Z,100660.00
2022-08-04T21:07:05.660Z,100657.94
2022-08-04T21:09:37.928Z,100658.38
2022-08-04T21:12:10.712Z,100651.41
2022-08-04T21:14:53.554Z,100648.13
2022-08-04T21:17:20.861Z,100656.41
2022-08-04T21:20:07.512Z,100653.19
2022-08-04T21:22:39.179Z,100652.81
2022-08-04T21:25:06.066Z,100648.28
2022-08-04T21:27:35.773Z,100649.53
2022-08-04T21:30:21.339Z,100654.84
2022-08-04T21:32:51.463Z,100659.38
2022-08-04T21:35:18.891Z,100662.25
2022-08-04T21:37:56.694Z,100657.69
2022-08-04T21:43:11.202Z,100658.53
2022-08-04T21:45:38.232Z,100670.81
2022-08-04T21:48:04.989Z,100664.63
2022-08-04T21:50:31.409Z,100659.28
2022-08-04T21:52:58.927Z,100660.13
2022-08-04T21:56:05.158Z,100659.31
2022-08-04T21:58:13.434Z,100658.81
2022-08-04T22:00:40.597Z,100655.94
2022-08-04T22:03:11.346Z,100649.38
2022-08-04T22:05:56.535Z,100652.66
2022-08-04T22:08:23.595Z,100650.22
2022-08-04T22:10:56.096Z,100641.97
2022-08-04T22:13:24.416Z,100652.94
2022-08-04T22:16:10.941Z,100648.78
2022-08-04T22:18:37.353Z,100645.13
2022-08-04T22:21:11.816Z,100651.69
2022-08-04T22:23:45.075Z,100648.75
2022-08-04T22:26:26.967Z,100648.72
2022-08-04T22:28:54.742Z,100645.44
2022-08-04T22:31:23.984Z,100647.03
2022-08-04T22:33:54.543Z,100643.72
2022-08-04T22:36:24.657Z,100630.84
2022-08-04T22:38:57.050Z,100641.06
2022-08-04T22:41:33.782Z,100633.72
2022-08-04T22:44:01.064Z,100640.19
2022-08-04T22:46:30.152Z,100630.19
2022-08-04T22:48:56.879Z,100647.00
2022-08-04T22:51:23.976Z,100653.03
2022-08-04T22:53:53.745Z,100650.28
2022-08-04T22:56:37.832Z,100661.75
2022-08-04T22:59:05.825Z,100671.47
2022-08-04T23:01:59.283Z,100669.97
2022-08-04T23:04:21.631Z,100667.47
2022-08-04T23:06:49.959Z,100672.44
2022-08-04T23:09:17.072Z,100666.28
2022-08-04T23:11:43.931Z,100670.47
2022-08-04T23:14:10.831Z,100666.09
2022-08-04T23:16:40.829Z,100663.03
2022-08-04T23:19:12.064Z,100665.06
2022-08-04T23:21:47.752Z,100661.75
2022-08-04T23:24:29.519Z,100658.03
2022-08-04T23:26:56.928Z,100653.78
2022-08-04T23:29:23.428Z,100654.00
2022-08-04T23:31:59.653Z,100656.28
2022-08-04T23:34:29.307Z,100658.03
2022-08-04T23:36:56.299Z,100645.63
2022-08-04T23:39:25.835Z,100650.88
2022-08-04T23:42:14.892Z,100636.84
2022-08-04T23:44:41.636Z,100638.69
2022-08-04T23:47:08.139Z,100641.06
2022-08-04T23:49:44.044Z,100637.31
2022-08-04T23:52:27.710Z,100629.03
2022-08-04T23:54:59.652Z,100625.66
2022-08-04T23:58:06.503Z,100626.91
